sensor_id;sensor_type;location;lat;lon;timestamp;pressure;altitude;pressure_sealevel;temperature;humidity
11888;BME280;6003;42.756;23.130;2023-03-15T00:00:30;153521.44;;;4.32;67.00
11888;BME280;6003;42.756;23.130;2023-03-15T00:02:57;153531.91;;;4.36;66.59
11888;BME280;6003;42.756;23.130;2023-03-15T00:05:23;153552.97;;;4.44;66.87
11888;BME280;6003;42.756;23.130;2023-03-15T00:07:50;153554.28;;;4.45;67.88
11888;BME280;6003;42.756;23.130;2023-03-15T00:10:19;153558.25;;;4.46;66.73
11888;BME280;6003;42.756;23.130;2023-03-15T00:12:46;153574.03;;;4.52;66.99
11888;BME280;6003;42.756;23.130;2023-03-15T00:15:13;153575.34;;;4.53;67.32
11888;BME280;6003;42.756;23.130;2023-03-15T00:17:40;153587.19;;;4.58;66.33
11888;BME280;6003;42.756;23.130;2023-03-15T00:20:10;153585.84;;;4.57;66.12
11888;BME280;6003;42.756;23.130;2023-03-15T00:22:39;153587.19;;;4.58;65.23
11888;BME280;6003;42.756;23.130;2023-03-15T00:25:06;153580.59;;;4.55;66.94
11888;BME280;6003;42.756;23.130;2023-03-15T00:27:35;153585.84;;;4.57;67.81
11888;BME280;6003;42.756;23.130;2023-03-15T00:30:02;153583.22;;;4.56;68.02
11888;BME280;6003;42.756;23.130;2023-03-15T00:32:29;153595.06;;;4.61;66.87
11888;BME280;6003;42.756;23.130;2023-03-15T00:34:56;153605.59;;;4.65;66.24
11888;BME280;6003;42.756;23.130;2023-03-15T00:37:22;153613.47;;;4.68;66.09
11888;BME280;6003;42.756;23.130;2023-03-15T00:39:50;153621.34;;;4.71;64.82
11888;BME280;6003;42.756;23.130;2023-03-15T00:42:20;153630.56;;;4.74;63.91
11888;BME280;6003;42.756;23.130;2023-03-15T00:44:53;153618.75;;;4.70;62.98
11888;BME280;6003;42.756;23.130;2023-03-15T00:47:20;153647.69;;;4.81;62.07
11888;BME280;6003;42.756;23.130;2023-03-15T00:49:47;153673.97;;;4.91;62.20
11888;BME280;6003;42.756;23.130;2023-03-15T00:52:15;153679.25;;;4.93;63.47
11888;BME280;6003;42.756;23.130;2023-03-15T00:54:41;153683.22;;;4.95;64.55
11888;BME280;6003;42.756;23.130;2023-03-15T00:57:09;153664.78;;;4.88;64.33
11888;BME280;6003;42.756;23.130;2023-03-15T00:59:36;153654.28;;;4.84;64.98
11888;BME280;6003;42.756;23.130;2023-03-15T01:02:05;153666.09;;;4.88;65.19
11888;BME280;6003;42.756;23.130;2023-03-15T01:04:31;153666.09;;;4.88;66.98
11888;BME280;6003;42.756;23.130;2023-03-15T01:06:58;153666.09;;;4.88;68.02
11888;BME280;6003;42.756;23.130;2023-03-15T01:09:25;153651.63;;;4.83;66.70
11888;BME280;6003;42.756;23.130;2023-03-15T01:11:52;153655.59;;;4.84;67.78
11888;BME280;6003;42.756;23.130;2023-03-15T01:14:19;153645.03;;;4.80;69.79
11888;BME280;6003;42.756;23.130;2023-03-15T01:16:46;153610.84;;;4.67;68.32
11888;BME280;6003;42.756;23.130;2023-03-15T01:19:14;153614.78;;;4.68;67.34
11888;BME280;6003;42.756;23.130;2023-03-15T01:21:41;153610.84;;;4.67;69.81
11888;BME280;6003;42.756;23.130;2023-03-15T01:24:11;153604.28;;;4.64;67.57
11888;BME280;6003;42.756;23.130;2023-03-15T01:26:38;153581.91;;;4.56;65.32
11888;BME280;6003;42.756;23.130;2023-03-15T01:29:05;153572.72;;;4.52;65.58
11888;BME280;6003;42.756;23.130;2023-03-15T01:31:32;153564.84;;;4.49;65.34
11888;BME280;6003;42.756;23.130;2023-03-15T01:33:58;153549.00;;;4.43;65.16
11888;BME280;6003;42.756;23.130;2023-03-15T01:36:27;153543.78;;;4.41;64.98
11888;BME280;6003;42.756;23.130;2023-03-15T01:38:54;153537.19;;;4.38;65.74
11888;BME280;6003;42.756;23.130;2023-03-15T01:41:21;153524.03;;;4.33;64.66
11888;BME280;6003;42.756;23.130;2023-03-15T01:43:50;153525.34;;;4.34;65.17
11888;BME280;6003;42.756;23.130;2023-03-15T01:46:21;153503.00;;;4.25;65.04
11888;BME280;6003;42.756;23.130;2023-03-15T01:48:56;153471.44;;;4.13;64.92
11888;BME280;6003;42.756;23.130;2023-03-15T01:51:29;153481.94;;;4.17;64.53
11888;BME280;6003;42.756;23.130;2023-03-15T01:54:02;153471.44;;;4.13;63.09
11888;BME280;6003;42.756;23.130;2023-03-15T01:56:31;153453.00;;;4.05;63.41
11888;BME280;6003;42.756;23.130;2023-03-15T01:59:00;153418.84;;;3.92;64.80
11888;BME280;6003;42.756;23.130;2023-03-15T02:01:29;153409.66;;;3.89;63.03
11888;BME280;6003;42.756;23.130;2023-03-15T02:04:02;153396.50;;;3.83;63.05
11888;BME280;6003;42.756;23.130;2023-03-15T02:06:30;153389.94;;;3.81;62.65
11888;BME280;6003;42.756;23.130;2023-03-15T02:09:01;153366.28;;;3.72;63.02
11888;BME280;6003;42.756;23.130;2023-03-15T02:11:29;153339.97;;;3.61;62.50
11888;BME280;6003;42.756;23.130;2023-03-15T02:13:56;153358.41;;;3.69;62.04
11888;BME280;6003;42.756;23.130;2023-03-15T02:16:24;153345.25;;;3.64;62.20
11888;BME280;6003;42.756;23.130;2023-03-15T02:18:51;153337.38;;;3.60;61.90
11888;BME280;6003;42.756;23.130;2023-03-15T02:21:29;153343.94;;;3.63;62.29
11888;BME280;6003;42.756;23.130;2023-03-15T02:24:05;153343.94;;;3.63;61.90
11888;BME280;6003;42.756;23.130;2023-03-15T02:26:36;153346.56;;;3.64;62.99
11888;BME280;6003;42.756;23.130;2023-03-15T02:29:16;153329.47;;;3.57;62.81
11888;BME280;6003;42.756;23.130;2023-03-15T02:31:43;153305.84;;;3.48;65.53
11888;BME280;6003;42.756;23.130;2023-03-15T02:34:10;153287.41;;;3.41;64.66
11888;BME280;6003;42.756;23.130;2023-03-15T02:36:37;153303.19;;;3.47;63.83
11888;BME280;6003;42.756;23.130;2023-03-15T02:39:13;153287.41;;;3.41;64.27
11888;BME280;6003;42.756;23.130;2023-03-15T02:41:43;153274.28;;;3.36;63.59
11888;BME280;6003;42.756;23.130;2023-03-15T02:44:14;153279.53;;;3.38;64.07
11888;BME280;6003;42.756;23.130;2023-03-15T02:46:45;153262.47;;;3.31;63.23
11888;BME280;6003;42.756;23.130;2023-03-15T02:49:14;153272.97;;;3.35;63.83
11888;BME280;6003;42.756;23.130;2023-03-15T02:51:42;153261.13;;;3.31;64.29
11888;BME280;6003;42.756;23.130;2023-03-15T02:54:09;153253.25;;;3.28;63.25
11888;BME280;6003;42.756;23.130;2023-03-15T02:56:35;153263.78;;;3.32;62.25
11888;BME280;6003;42.756;23.130;2023-03-15T02:59:02;153269.03;;;3.34;65.15
11888;BME280;6003;42.756;23.130;2023-03-15T03:01:29;153232.25;;;3.20;63.66
11888;BME280;6003;42.756;23.130;2023-03-15T03:03:58;153220.41;;;3.15;63.26
11888;BME280;6003;42.756;23.130;2023-03-15T03:06:25;153224.38;;;3.16;62.98
11888;BME280;6003;42.756;23.130;2023-03-15T03:08:52;153229.59;;;3.19;63.59
11888;BME280;6003;42.756;23.130;2023-03-15T03:11:18;153221.72;;;3.15;64.02
11888;BME280;6003;42.756;23.130;2023-03-15T03:13:46;153213.84;;;3.12;63.74
11888;BME280;6003;42.756;23.130;2023-03-15T03:16:12;153202.00;;;3.08;63.67
11888;BME280;6003;42.756;23.130;2023-03-15T03:18:39;153198.06;;;3.06;64.25
11888;BME280;6003;42.756;23.130;2023-03-15T03:21:07;153223.03;;;3.16;63.99
11888;BME280;6003;42.756;23.130;2023-03-15T03:23:35;153229.59;;;3.19;64.08
11888;BME280;6003;42.756;23.130;2023-03-15T03:26:02;153229.59;;;3.19;63.88
11888;BME280;6003;42.756;23.130;2023-03-15T03:28:30;153241.44;;;3.23;63.61
11888;BME280;6003;42.756;23.130;2023-03-15T03:30:58;153240.13;;;3.23;65.73
11888;BME280;6003;42.756;23.130;2023-03-15T03:33:25;153224.38;;;3.16;67.71
11888;BME280;6003;42.756;23.130;2023-03-15T03:35:52;153211.22;;;3.11;68.86
11888;BME280;6003;42.756;23.130;2023-03-15T03:38:21;153225.69;;;3.17;66.87
11888;BME280;6003;42.756;23.130;2023-03-15T03:40:47;153242.75;;;3.24;65.15
11888;BME280;6003;42.756;23.130;2023-03-15T03:43:14;153251.94;;;3.27;64.89
11888;BME280;6003;42.756;23.130;2023-03-15T03:45:41;153267.69;;;3.33;65.31
11888;BME280;6003;42.756;23.130;2023-03-15T03:48:07;153275.56;;;3.36;65.72
11888;BME280;6003;42.756;23.130;2023-03-15T03:50:34;153283.50;;;3.39;65.91
11888;BME280;6003;42.756;23.130;2023-03-15T03:53:01;153287.41;;;3.41;65.90
11888;BME280;6003;42.756;23.130;2023-03-15T03:55:29;153299.25;;;3.46;65.00
11888;BME280;6003;42.756;23.130;2023-03-15T03:57:58;153326.81;;;3.56;65.72
11888;BME280;6003;42.756;23.130;2023-03-15T04:00:25;153334.69;;;3.59;66.81
11888;BME280;6003;42.756;23.130;2023-03-15T04:02:52;153324.22;;;3.55;68.46
11888;BME280;6003;42.756;23.130;2023-03-15T04:05:19;153316.34;;;3.52;69.48
11888;BME280;6003;42.756;23.130;2023-03-15T04:07:46;153342.63;;;3.63;69.43
11888;BME280;6003;42.756;23.130;2023-03-15T04:10:13;153353.13;;;3.67;68.39
11888;BME280;6003;42.756;23.130;2023-03-15T04:12:43;153337.38;;;3.60;69.22
11888;BME280;6003;42.756;23.130;2023-03-15T04:15:10;153337.38;;;3.60;69.61
11888;BME280;6003;42.756;23.130;2023-03-15T04:17:37;153353.13;;;3.67;70.54
11888;BME280;6003;42.756;23.130;2023-03-15T04:20:05;153368.91;;;3.73;69.55
11888;BME280;6003;42.756;23.130;2023-03-15T04:22:36;153374.16;;;3.75;69.08
11888;BME280;6003;42.756;23.130;2023-03-15T04:25:03;153328.19;;;3.57;68.30
11888;BME280;6003;42.756;23.130;2023-03-15T04:27:30;153364.97;;;3.71;68.55
11888;BME280;6003;42.756;23.130;2023-03-15T04:29:58;153342.63;;;3.63;68.31
11888;BME280;6003;42.756;23.130;2023-03-15T04:32:29;153368.91;;;3.73;69.53
11888;BME280;6003;42.756;23.130;2023-03-15T04:34:56;153389.94;;;3.81;68.43
11888;BME280;6003;42.756;23.130;2023-03-15T04:37:23;153409.66;;;3.89;67.23
11888;BME280;6003;42.756;23.130;2023-03-15T04:39:50;153429.34;;;3.96;67.15
11888;BME280;6003;42.756;23.130;2023-03-15T04:42:17;153439.91;;;4.00;66.72
11888;BME280;6003;42.756;23.130;2023-03-15T04:44:43;153439.91;;;4.00;68.64
11888;BME280;6003;42.756;23.130;2023-03-15T04:47:12;153426.75;;;3.95;69.93
11888;BME280;6003;42.756;23.130;2023-03-15T04:49:39;153438.53;;;4.00;70.01
11888;BME280;6003;42.756;23.130;2023-03-15T04:52:06;153458.28;;;4.07;67.90
11888;BME280;6003;42.756;23.130;2023-03-15T04:54:32;153458.28;;;4.07;69.08
11888;BME280;6003;42.756;23.130;2023-03-15T04:56:59;153470.13;;;4.12;70.45
11888;BME280;6003;42.756;23.130;2023-03-15T04:59:26;153478.03;;;4.15;67.99
11888;BME280;6003;42.756;23.130;2023-03-15T05:01:53;153485.91;;;4.18;64.92
11888;BME280;6003;42.756;23.130;2023-03-15T05:04:21;153510.88;;;4.28;64.89
11888;BME280;6003;42.756;23.130;2023-03-15T05:06:48;153538.50;;;4.39;64.49
11888;BME280;6003;42.756;23.130;2023-03-15T05:09:15;153556.88;;;4.46;63.79
11888;BME280;6003;42.756;23.130;2023-03-15T05:11:43;153568.75;;;4.50;63.39
11888;BME280;6003;42.756;23.130;2023-03-15T05:14:10;153555.59;;;4.45;64.42
11888;BME280;6003;42.756;23.130;2023-03-15T05:16:37;153554.28;;;4.45;66.54
11888;BME280;6003;42.756;23.130;2023-03-15T05:19:04;153552.97;;;4.44;65.89
11888;BME280;6003;42.756;23.130;2023-03-15T05:21:33;153558.25;;;4.46;64.62
11888;BME280;6003;42.756;23.130;2023-03-15T05:23:59;153567.44;;;4.50;64.27
11888;BME280;6003;42.756;23.130;2023-03-15T05:26:26;153564.84;;;4.49;64.21
11888;BME280;6003;42.756;23.130;2023-03-15T05:28:53;153558.25;;;4.46;63.92
11888;BME280;6003;42.756;23.130;2023-03-15T05:31:20;153581.91;;;4.56;64.08
11888;BME280;6003;42.756;23.130;2023-03-15T05:33:47;153601.66;;;4.63;66.36
11888;BME280;6003;42.756;23.130;2023-03-15T05:36:14;153613.47;;;4.68;66.71
11888;BME280;6003;42.756;23.130;2023-03-15T05:38:43;153634.53;;;4.76;67.21
11888;BME280;6003;42.756;23.130;2023-03-15T05:41:10;153662.16;;;4.87;65.63
11888;BME280;6003;42.756;23.130;2023-03-15T05:43:36;153689.75;;;4.97;65.36
11888;BME280;6003;42.756;23.130;2023-03-15T05:46:03;153713.47;;;5.07;64.60
11888;BME280;6003;42.756;23.130;2023-03-15T05:48:30;153727.97;;;5.12;64.51
11888;BME280;6003;42.756;23.130;2023-03-15T05:50:57;153770.03;;;5.29;64.79
11888;BME280;6003;42.756;23.130;2023-03-15T05:53:24;153814.78;;;5.46;63.32
11888;BME280;6003;42.756;23.130;2023-03-15T05:55:52;153846.41;;;5.58;63.81
11888;BME280;6003;42.756;23.130;2023-03-15T05:58:19;153884.59;;;5.73;62.71
11888;BME280;6003;42.756;23.130;2023-03-15T06:00:46;153903.00;;;5.80;61.31
11888;BME280;6003;42.756;23.130;2023-03-15T06:03:13;153950.47;;;5.99;60.64
11888;BME280;6003;42.756;23.130;2023-03-15T06:05:41;154034.75;;;6.31;61.49
11888;BME280;6003;42.756;23.130;2023-03-15T06:08:08;154116.44;;;6.63;61.47
11888;BME280;6003;42.756;23.130;2023-03-15T06:10:35;154184.94;;;6.90;61.43
11888;BME280;6003;42.756;23.130;2023-03-15T06:13:03;154191.53;;;6.92;59.14
11888;BME280;6003;42.756;23.130;2023-03-15T06:15:31;154194.22;;;6.93;60.57
11888;BME280;6003;42.756;23.130;2023-03-15T06:17:58;154219.25;;;7.03;59.01
11888;BME280;6003;42.756;23.130;2023-03-15T06:20:26;154241.66;;;7.12;58.91
11888;BME280;6003;42.756;23.130;2023-03-15T06:22:53;154270.66;;;7.23;58.89
11888;BME280;6003;42.756;23.130;2023-03-15T06:25:19;154285.16;;;7.29;58.29
11888;BME280;6003;42.756;23.130;2023-03-15T06:27:46;154184.94;;;6.90;59.61
11888;BME280;6003;42.756;23.130;2023-03-15T06:30:15;154210.03;;;6.99;59.86
11888;BME280;6003;42.756;23.130;2023-03-15T06:32:41;154208.66;;;6.99;61.38
11888;BME280;6003;42.756;23.130;2023-03-15T06:35:08;154126.97;;;6.67;59.04
11888;BME280;6003;42.756;23.130;2023-03-15T06:37:35;154116.44;;;6.63;62.17
11888;BME280;6003;42.756;23.130;2023-03-15T06:40:03;154125.66;;;6.67;60.78
11888;BME280;6003;42.756;23.130;2023-03-15T06:42:32;154091.44;;;6.53;61.43
11888;BME280;6003;42.756;23.130;2023-03-15T06:44:59;154105.91;;;6.59;61.03
11888;BME280;6003;42.756;23.130;2023-03-15T06:47:29;154153.34;;;6.77;60.70
11888;BME280;6003;42.756;23.130;2023-03-15T06:49:55;154146.75;;;6.75;59.15
11888;BME280;6003;42.756;23.130;2023-03-15T06:52:22;154144.13;;;6.74;58.83
11888;BME280;6003;42.756;23.130;2023-03-15T06:54:49;154140.16;;;6.72;58.81
11888;BME280;6003;42.756;23.130;2023-03-15T06:57:16;154219.25;;;7.03;60.04
11888;BME280;6003;42.756;23.130;2023-03-15T06:59:43;154316.78;;;7.41;58.01
11888;BME280;6003;42.756;23.130;2023-03-15T07:02:12;154377.41;;;7.64;57.15
11888;BME280;6003;42.756;23.130;2023-03-15T07:04:41;154358.97;;;7.57;55.65
11888;BME280;6003;42.756;23.130;2023-03-15T07:07:09;154393.25;;;7.71;56.32
11888;BME280;6003;42.756;23.130;2023-03-15T07:09:43;154446.00;;;7.91;55.92
11888;BME280;6003;42.756;23.130;2023-03-15T07:12:10;154447.34;;;7.91;55.66
11888;BME280;6003;42.756;23.130;2023-03-15T07:14:37;154461.88;;;7.97;56.28
11888;BME280;6003;42.756;23.130;2023-03-15T07:17:04;154378.72;;;7.65;56.84
11888;BME280;6003;42.756;23.130;2023-03-15T07:19:30;154435.47;;;7.87;56.61
11888;BME280;6003;42.756;23.130;2023-03-15T07:21:59;154480.31;;;8.04;58.02
11888;BME280;6003;42.756;23.130;2023-03-15T07:24:25;154461.88;;;7.97;56.68
11888;BME280;6003;42.756;23.130;2023-03-15T07:26:53;154438.06;;;7.88;57.61
11888;BME280;6003;42.756;23.130;2023-03-15T07:29:21;154448.66;;;7.92;58.56
11888;BME280;6003;42.756;23.130;2023-03-15T07:31:48;154482.91;;;8.05;55.06
11888;BME280;6003;42.756;23.130;2023-03-15T07:34:15;154508.03;;;8.15;56.78
11888;BME280;6003;42.756;23.130;2023-03-15T07:36:42;154558.16;;;8.34;53.16
11888;BME280;6003;42.756;23.130;2023-03-15T07:39:10;154581.97;;;8.44;55.00
11888;BME280;6003;42.756;23.130;2023-03-15T07:41:36;154645.28;;;8.68;54.70
11888;BME280;6003;42.756;23.130;2023-03-15T07:44:04;154744.31;;;9.07;56.51
11888;BME280;6003;42.756;23.130;2023-03-15T07:46:31;154812.94;;;9.33;52.60
11888;BME280;6003;42.756;23.130;2023-03-15T07:48:58;154856.53;;;9.50;55.02
11888;BME280;6003;42.756;23.130;2023-03-15T07:51:24;154781.28;;;9.21;53.35
11888;BME280;6003;42.756;23.130;2023-03-15T07:53:51;154791.81;;;9.25;53.80
11888;BME280;6003;42.756;23.130;2023-03-15T07:56:20;154733.72;;;9.02;53.43
11888;BME280;6003;42.756;23.130;2023-03-15T07:58:46;154741.63;;;9.06;53.76
11888;BME280;6003;42.756;23.130;2023-03-15T08:01:13;154739.00;;;9.04;54.67
11888;BME280;6003;42.756;23.130;2023-03-15T08:03:40;154649.25;;;8.70;53.45
11888;BME280;6003;42.756;23.130;2023-03-15T08:06:07;154712.59;;;8.94;54.93
11888;BME280;6003;42.756;23.130;2023-03-15T08:08:34;154665.09;;;8.76;54.30
11888;BME280;6003;42.756;23.130;2023-03-15T08:11:00;154731.09;;;9.01;55.50
11888;BME280;6003;42.756;23.130;2023-03-15T08:13:29;154818.25;;;9.35;54.94
11888;BME280;6003;42.756;23.130;2023-03-15T08:15:55;154856.53;;;9.50;53.70
11888;BME280;6003;42.756;23.130;2023-03-15T08:18:22;154896.16;;;9.65;55.53
11888;BME280;6003;42.756;23.130;2023-03-15T08:20:49;154892.22;;;9.64;53.78
11888;BME280;6003;42.756;23.130;2023-03-15T08:23:16;154897.47;;;9.66;53.72
11888;BME280;6003;42.756;23.130;2023-03-15T08:25:43;154834.09;;;9.41;53.05
11888;BME280;6003;42.756;23.130;2023-03-15T08:28:10;154849.94;;;9.47;54.88
11888;BME280;6003;42.756;23.130;2023-03-15T08:30:39;154974.13;;;9.96;55.44
11888;BME280;6003;42.756;23.130;2023-03-15T08:33:06;155119.50;;;10.52;51.97
11888;BME280;6003;42.756;23.130;2023-03-15T08:35:33;155148.56;;;10.63;52.72
11888;BME280;6003;42.756;23.130;2023-03-15T08:38:00;155139.34;;;10.59;51.01
11888;BME280;6003;42.756;23.130;2023-03-15T08:40:28;155143.28;;;10.61;51.70
11888;BME280;6003;42.756;23.130;2023-03-15T08:42:55;155145.94;;;10.62;52.07
11888;BME280;6003;42.756;23.130;2023-03-15T08:45:23;155143.28;;;10.61;50.29
11888;BME280;6003;42.756;23.130;2023-03-15T08:47:54;155151.19;;;10.64;50.66
11888;BME280;6003;42.756;23.130;2023-03-15T08:50:22;155201.44;;;10.83;52.50
11888;BME280;6003;42.756;23.130;2023-03-15T08:52:48;155233.16;;;10.96;50.29
11888;BME280;6003;42.756;23.130;2023-03-15T08:55:15;155295.34;;;11.20;52.88
11888;BME280;6003;42.756;23.130;2023-03-15T08:57:42;155344.25;;;11.39;49.99
11888;BME280;6003;42.756;23.130;2023-03-15T09:00:10;155333.69;;;11.35;50.44
11888;BME280;6003;42.756;23.130;2023-03-15T09:02:45;155329.69;;;11.33;49.36
11888;BME280;6003;42.756;23.130;2023-03-15T09:05:15;155307.22;;;11.24;50.82
11888;BME280;6003;42.756;23.130;2023-03-15T09:07:43;155317.84;;;11.28;50.53
11888;BME280;6003;42.756;23.130;2023-03-15T09:10:11;155321.78;;;11.30;51.65
11888;BME280;6003;42.756;23.130;2023-03-15T09:12:39;155369.41;;;11.48;51.81
11888;BME280;6003;42.756;23.130;2023-03-15T09:15:07;155440.81;;;11.76;51.11
11888;BME280;6003;42.756;23.130;2023-03-15T09:17:35;155488.53;;;11.94;49.56
11888;BME280;6003;42.756;23.130;2023-03-15T09:20:02;155415.69;;;11.66;49.82
11888;BME280;6003;42.756;23.130;2023-03-15T09:22:37;155427.63;;;11.71;52.54
11888;BME280;6003;42.756;23.130;2023-03-15T09:25:04;155435.56;;;11.74;52.95
11888;BME280;6003;42.756;23.130;2023-03-15T09:27:31;155501.72;;;12.00;53.30
11888;BME280;6003;42.756;23.130;2023-03-15T09:29:58;155499.09;;;11.99;53.40
11888;BME280;6003;42.756;23.130;2023-03-15T09:32:25;155514.97;;;12.05;53.16
11888;BME280;6003;42.756;23.130;2023-03-15T09:34:52;155530.84;;;12.11;53.34
11888;BME280;6003;42.756;23.130;2023-03-15T09:37:19;155534.84;;;12.12;54.26
11888;BME280;6003;42.756;23.130;2023-03-15T09:39:47;155540.16;;;12.14;53.55
11888;BME280;6003;42.756;23.130;2023-03-15T09:42:19;155571.91;;;12.27;54.46
11888;BME280;6003;42.756;23.130;2023-03-15T09:44:52;155659.28;;;12.60;54.78
11888;BME280;6003;42.756;23.130;2023-03-15T09:47:32;155720.16;;;12.84;53.91
11888;BME280;6003;42.756;23.130;2023-03-15T09:50:04;155774.44;;;13.05;51.96
11888;BME280;6003;42.756;23.130;2023-03-15T09:52:36;155828.78;;;13.26;51.76
11888;BME280;6003;42.756;23.130;2023-03-15T09:55:11;155815.53;;;13.21;51.11
11888;BME280;6003;42.756;23.130;2023-03-15T09:57:46;155717.50;;;12.83;50.77
11888;BME280;6003;42.756;23.130;2023-03-15T10:00:18;155746.63;;;12.94;52.58
11888;BME280;6003;42.756;23.130;2023-03-15T10:02:54;155791.66;;;13.12;52.23
11888;BME280;6003;42.756;23.130;2023-03-15T10:05:31;155828.78;;;13.26;51.72
11888;BME280;6003;42.756;23.130;2023-03-15T10:08:00;155831.47;;;13.27;52.19
11888;BME280;6003;42.756;23.130;2023-03-15T10:10:33;155914.91;;;13.59;51.30
11888;BME280;6003;42.756;23.130;2023-03-15T10:13:13;155989.13;;;13.88;51.66
11888;BME280;6003;42.756;23.130;2023-03-15T10:15:50;156092.50;;;14.28;51.81
11888;BME280;6003;42.756;23.130;2023-03-15T10:18:37;156101.78;;;14.31;49.94
11888;BME280;6003;42.756;23.130;2023-03-15T10:21:11;156226.47;;;14.79;50.89
11888;BME280;6003;42.756;23.130;2023-03-15T10:23:45;156263.59;;;14.94;49.27
11888;BME280;6003;42.756;23.130;2023-03-15T10:26:18;156233.09;;;14.82;49.31
11888;BME280;6003;42.756;23.130;2023-03-15T10:28:51;156153.47;;;14.51;48.75
11888;BME280;6003;42.756;23.130;2023-03-15T10:31:22;156109.72;;;14.34;49.58
11888;BME280;6003;42.756;23.130;2023-03-15T10:33:50;156075.25;;;14.21;50.65
11888;BME280;6003;42.756;23.130;2023-03-15T10:36:20;155971.91;;;13.81;50.47
11888;BME280;6003;42.756;23.130;2023-03-15T10:38:47;155902.97;;;13.54;51.53
11888;BME280;6003;42.756;23.130;2023-03-15T10:41:29;155828.78;;;13.26;52.04
11888;BME280;6003;42.756;23.130;2023-03-15T10:43:59;155718.84;;;12.83;52.26
11888;BME280;6003;42.756;23.130;2023-03-15T10:46:26;155668.53;;;12.64;53.57
11888;BME280;6003;42.756;23.130;2023-03-15T10:48:57;155557.34;;;12.21;54.47
11888;BME280;6003;42.756;23.130;2023-03-15T10:51:26;155513.66;;;12.04;55.19
11888;BME280;6003;42.756;23.130;2023-03-15T10:53:55;155487.22;;;11.94;55.48
11888;BME280;6003;42.756;23.130;2023-03-15T10:56:25;155495.16;;;11.97;57.13
11888;BME280;6003;42.756;23.130;2023-03-15T10:58:55;155428.94;;;11.71;56.12
11888;BME280;6003;42.756;23.130;2023-03-15T11:01:24;155466.03;;;11.86;56.98
11888;BME280;6003;42.756;23.130;2023-03-15T11:04:10;155466.03;;;11.86;57.96
11888;BME280;6003;42.756;23.130;2023-03-15T11:06:41;155466.03;;;11.86;57.09
11888;BME280;6003;42.756;23.130;2023-03-15T11:09:12;155386.59;;;11.55;55.37
11888;BME280;6003;42.756;23.130;2023-03-15T11:11:58;155299.28;;;11.21;57.50
11888;BME280;6003;42.756;23.130;2023-03-15T11:14:31;155287.41;;;11.17;58.02
11888;BME280;6003;42.756;23.130;2023-03-15T11:17:00;155260.94;;;11.06;57.87
11888;BME280;6003;42.756;23.130;2023-03-15T11:19:29;155230.53;;;10.95;59.02
11888;BME280;6003;42.756;23.130;2023-03-15T11:21:58;155222.63;;;10.92;60.34
11888;BME280;6003;42.756;23.130;2023-03-15T11:24:28;155230.53;;;10.95;60.44
11888;BME280;6003;42.756;23.130;2023-03-15T11:26:57;155230.53;;;10.95;61.08
11888;BME280;6003;42.756;23.130;2023-03-15T11:29:29;155126.09;;;10.54;61.99
11888;BME280;6003;42.756;23.130;2023-03-15T11:31:57;155143.28;;;10.61;62.83
11888;BME280;6003;42.756;23.130;2023-03-15T11:34:39;155157.81;;;10.67;64.54
11888;BME280;6003;42.756;23.130;2023-03-15T11:37:14;155151.19;;;10.64;65.09
11888;BME280;6003;42.756;23.130;2023-03-15T11:39:45;155172.38;;;10.72;66.35
11888;BME280;6003;42.756;23.130;2023-03-15T11:42:18;155148.56;;;10.63;67.02
11888;BME280;6003;42.756;23.130;2023-03-15T11:44:50;155101.00;;;10.45;70.47
11888;BME280;6003;42.756;23.130;2023-03-15T11:47:27;155061.34;;;10.29;71.13
11888;BME280;6003;42.756;23.130;2023-03-15T11:49:58;155005.81;;;10.08;71.88
11888;BME280;6003;42.756;23.130;2023-03-15T11:52:26;154985.97;;;10.00;70.38
11888;BME280;6003;42.756;23.130;2023-03-15T11:54:56;154956.91;;;9.89;70.90
11888;BME280;6003;42.756;23.130;2023-03-15T11:57:41;154954.28;;;9.88;70.79
11888;BME280;6003;42.756;23.130;2023-03-15T12:03:28;154951.66;;;9.87;69.02
11888;BME280;6003;42.756;23.130;2023-03-15T12:06:00;154950.28;;;9.86;69.26
11888;BME280;6003;42.756;23.130;2023-03-15T12:08:44;154926.53;;;9.77;69.95
11888;BME280;6003;42.756;23.130;2023-03-15T12:11:12;154905.38;;;9.69;70.05
11888;BME280;6003;42.756;23.130;2023-03-15T12:13:51;154910.69;;;9.71;70.60
11888;BME280;6003;42.756;23.130;2023-03-15T12:16:25;154910.69;;;9.71;69.95
11888;BME280;6003;42.756;23.130;2023-03-15T12:18:54;154912.00;;;9.71;69.61
11888;BME280;6003;42.756;23.130;2023-03-15T12:21:30;154917.28;;;9.74;70.13
11888;BME280;6003;42.756;23.130;2023-03-15T12:24:00;154937.13;;;9.81;70.08
11888;BME280;6003;42.756;23.130;2023-03-15T12:26:40;154955.59;;;9.88;69.10
11888;BME280;6003;42.756;23.130;2023-03-15T12:29:22;154958.22;;;9.89;68.05
11888;BME280;6003;42.756;23.130;2023-03-15T12:31:54;154976.72;;;9.97;67.24
11888;BME280;6003;42.756;23.130;2023-03-15T12:34:34;155008.44;;;10.09;68.01
11888;BME280;6003;42.756;23.130;2023-03-15T12:37:05;155025.59;;;10.15;67.44
11888;BME280;6003;42.756;23.130;2023-03-15T12:39:37;155013.72;;;10.11;67.38
11888;BME280;6003;42.756;23.130;2023-03-15T12:42:04;154947.66;;;9.85;67.13
11888;BME280;6003;42.756;23.130;2023-03-15T12:44:39;154879.00;;;9.59;67.37
11888;BME280;6003;42.756;23.130;2023-03-15T12:47:08;154840.69;;;9.44;67.84
11888;BME280;6003;42.756;23.130;2023-03-15T12:49:38;154811.66;;;9.33;69.15
11888;BME280;6003;42.756;23.130;2023-03-15T12:52:32;154812.94;;;9.33;71.87
11888;BME280;6003;42.756;23.130;2023-03-15T12:55:05;154761.47;;;9.13;72.38
11888;BME280;6003;42.756;23.130;2023-03-15T12:57:39;154680.94;;;8.82;72.11
11888;BME280;6003;42.756;23.130;2023-03-15T13:00:13;154678.31;;;8.81;72.52
11888;BME280;6003;42.756;23.130;2023-03-15T13:02:46;154636.03;;;8.65;72.83
11888;BME280;6003;42.756;23.130;2023-03-15T13:05:18;154633.44;;;8.64;73.31
11888;BME280;6003;42.756;23.130;2023-03-15T13:07:55;154591.19;;;8.47;74.01
11888;BME280;6003;42.756;23.130;2023-03-15T13:10:35;154583.28;;;8.44;73.89